createdAt,value
2018-12-05T00:00:29.458Z,0
2018-12-05T00:01:39.774Z,0
2018-12-05T00:02:49.838Z,0
2018-12-05T00:03:59.912Z,0
2018-12-05T00:05:10.172Z,0
2018-12-05T00:06:20.011Z,0
2018-12-05T00:07:30.066Z,0
2018-12-05T00:08:39.909Z,0
2018-12-05T00:09:49.975Z,0
2018-12-05T00:11:00.051Z,0
2018-12-05T00:12:10.629Z,0
2018-12-05T00:13:20.430Z,0
2018-12-05T00:14:30.502Z,0
2018-12-05T00:15:40.564Z,0
2018-12-05T00:16:50.646Z,0
2018-12-05T00:18:02.877Z,0
2018-12-05T00:19:12.951Z,0
2018-12-05T00:20:23.036Z,0
2018-12-05T00:21:33.103Z,0
2018-12-05T00:22:43.237Z,0
2018-12-05T00:23:53.337Z,0
2018-12-05T00:25:03.464Z,0
2018-12-05T00:26:13.314Z,0
2018-12-05T00:27:23.378Z,0
2018-12-05T00:28:33.533Z,0
2018-12-05T00:29:43.678Z,0
2018-12-05T00:30:53.760Z,0
2018-12-05T00:32:03.572Z,0
2018-12-05T00:33:13.642Z,0
2018-12-05T00:34:24.976Z,0
2018-12-05T00:35:35.048Z,0
2018-12-05T00:36:45.115Z,0
2018-12-05T00:37:55.392Z,0
2018-12-05T00:39:05.469Z,0
2018-12-05T00:40:15.303Z,0
2018-12-05T00:41:25.394Z,0
2018-12-05T00:42:35.698Z,0
2018-12-05T00:43:45.756Z,0
2018-12-05T00:44:55.849Z,0
2018-12-05T00:46:05.727Z,0
2018-12-05T00:47:15.530Z,0
2018-12-05T00:48:25.622Z,0
2018-12-05T00:49:35.691Z,0
2018-12-05T00:50:45.502Z,0
2018-12-05T00:51:55.803Z,0
2018-12-05T00:53:07.206Z,0
2018-12-05T00:54:20.110Z,0
2018-12-05T00:55:34.406Z,0
2018-12-05T00:56:45.897Z,0
2018-12-05T00:57:56.021Z,0
2018-12-05T00:59:07.581Z,0
2018-12-05T01:00:17.398Z,0
2018-12-05T01:01:26.929Z,0
2018-12-05T01:02:37.087Z,0
2018-12-05T01:03:46.903Z,0
2018-12-05T01:04:56.751Z,0
2018-12-05T01:06:06.826Z,0
2018-12-05T01:07:16.900Z,0
2018-12-05T01:08:27.078Z,0
2018-12-05T01:09:37.145Z,0
2018-12-05T01:10:48.516Z,0
2018-12-05T01:11:59.696Z,0
2018-12-05T01:13:09.764Z,0
2018-12-05T01:14:19.906Z,0
2018-12-05T01:15:29.976Z,0
2018-12-05T01:16:40.318Z,0
2018-12-05T01:17:50.475Z,0
2018-12-05T01:19:00.537Z,0
2018-12-05T01:20:10.590Z,0
2018-12-05T01:21:20.659Z,0
2018-12-05T01:22:30.461Z,0
2018-12-05T01:23:40.267Z,0
2018-12-05T01:24:50.574Z,0
2018-12-05T01:26:02.939Z,0
2018-12-05T01:27:12.484Z,0
2018-12-05T01:28:22.551Z,0
2018-12-05T01:29:32.633Z,0
2018-12-05T01:30:42.705Z,0
2018-12-05T01:31:54.898Z,0
2018-12-05T01:33:06.364Z,0
2018-12-05T01:34:16.421Z,0
2018-12-05T01:35:26.228Z,0
2018-12-05T01:36:36.297Z,0
2018-12-05T01:37:46.401Z,0
2018-12-05T01:38:56.697Z,0
2018-12-05T01:40:07.031Z,0
2018-12-05T01:41:17.341Z,0
2018-12-05T01:42:27.505Z,0
2018-12-05T01:43:37.572Z,0
2018-12-05T01:44:47.394Z,0
2018-12-05T01:45:57.453Z,0
2018-12-05T01:47:10.027Z,0
2018-12-05T01:48:20.104Z,0
2018-12-05T01:49:30.218Z,0
2018-12-05T01:50:40.205Z,0
2018-12-05T01:51:50.245Z,0
2018-12-05T01:53:00.533Z,0
2018-12-05T01:54:10.588Z,0
2018-12-05T01:55:20.674Z,0
2018-12-05T01:56:30.728Z,0
2018-12-05T01:57:40.787Z,0
2018-12-05T01:58:50.600Z,0
2018-12-05T02:00:03.401Z,0
2018-12-05T02:01:13.530Z,0
2018-12-05T02:02:23.602Z,0
2018-12-05T02:03:33.673Z,0
2018-12-05T02:04:43.736Z,0
2018-12-05T02:05:53.781Z,0
2018-12-05T02:07:05.919Z,0
2018-12-05T02:08:15.976Z,0
2018-12-05T02:09:26.041Z,0
2018-12-05T02:10:36.117Z,0
2018-12-05T02:11:46.197Z,0
2018-12-05T02:12:56.249Z,0
2018-12-05T02:14:06.261Z,0
2018-12-05T02:15:16.259Z,0
2018-12-05T02:16:26.259Z,0
2018-12-05T02:17:36.535Z,0
2018-12-05T02:18:47.192Z,0
2018-12-05T02:19:57.437Z,0
2018-12-05T02:21:07.280Z,0
2018-12-05T02:22:17.471Z,0
2018-12-05T02:23:27.517Z,0
2018-12-05T02:24:37.803Z,0
2018-12-05T02:25:48.005Z,0
2018-12-05T02:26:58.009Z,0
2018-12-05T02:28:08.003Z,0
2018-12-05T02:29:17.988Z,0
2018-12-05T02:30:27.983Z,0
2018-12-05T02:31:37.990Z,0
2018-12-05T02:32:48.295Z,0
2018-12-05T02:33:58.302Z,0
2018-12-05T02:35:08.306Z,0
2018-12-05T02:36:18.372Z,0
2018-12-05T02:37:28.493Z,0
2018-12-05T02:38:37.971Z,0
2018-12-05T02:39:48.020Z,0
2018-12-05T02:40:58.029Z,0
2018-12-05T02:42:08.122Z,0
2018-12-05T02:43:18.643Z,0
2018-12-05T02:44:29.955Z,0
2018-12-05T02:45:39.697Z,0
2018-12-05T02:46:49.994Z,0
2018-12-05T02:48:00.050Z,0
2018-12-05T02:49:10.339Z,0
2018-12-05T02:50:20.408Z,0
2018-12-05T02:51:30.486Z,0
2018-12-05T02:52:40.561Z,0
2018-12-05T02:53:50.734Z,0
2018-12-05T02:55:01.355Z,0
2018-12-05T02:56:11.167Z,0
2018-12-05T02:57:20.992Z,0
2018-12-05T02:58:31.060Z,0
2018-12-05T02:59:41.130Z,0
2018-12-05T03:00:51.205Z,0
2018-12-05T03:02:01.261Z,0
2018-12-05T03:03:11.357Z,0
2018-12-05T03:35:06.342Z,0
2018-12-05T03:36:16.395Z,0
2018-12-05T03:37:26.444Z,0
2018-12-05T03:38:36.529Z,0
2018-12-05T03:39:46.883Z,0
2018-12-05T03:40:57.006Z,0
2018-12-05T03:42:07.190Z,0
2018-12-05T03:43:17.015Z,0
2018-12-05T03:44:27.111Z,0
2018-12-05T03:45:38.960Z,0
2018-12-05T03:46:49.035Z,0
2018-12-05T03:47:58.858Z,0
2018-12-05T03:49:08.923Z,0
2018-12-05T03:50:18.716Z,0
2018-12-05T03:51:28.769Z,0
2018-12-05T03:52:38.627Z,0
2018-12-05T03:53:48.689Z,0
2018-12-05T03:54:58.500Z,0
2018-12-05T03:56:08.585Z,0
2018-12-05T03:57:18.401Z,0
2018-12-05T03:58:28.477Z,0
2018-12-05T03:59:38.537Z,0
2018-12-05T04:00:48.630Z,0
2018-12-05T04:01:58.432Z,0
2018-12-05T04:03:09.991Z,0
2018-12-05T04:04:20.118Z,0
2018-12-05T04:05:30.182Z,0
2018-12-05T04:06:40.445Z,0
2018-12-05T04:07:50.521Z,0
2018-12-05T04:09:03.363Z,0
2018-12-05T04:10:13.414Z,0
2018-12-05T04:11:23.507Z,0
2018-12-05T04:12:40.384Z,0
2018-12-05T04:13:50.874Z,0
2018-12-05T04:15:03.097Z,0
2018-12-05T04:16:13.205Z,0
2018-12-05T04:17:23.268Z,0
2018-12-05T04:18:33.322Z,0
2018-12-05T04:19:43.398Z,0
2018-12-05T04:20:53.500Z,0
2018-12-05T04:22:03.303Z,0
2018-12-05T04:23:13.394Z,0
2018-12-05T04:24:23.454Z,0
2018-12-05T04:25:33.520Z,0
2018-12-05T04:26:43.572Z,0
2018-12-05T04:27:53.399Z,0
2018-12-05T04:29:03.473Z,0
2018-12-05T04:30:13.273Z,0
2018-12-05T04:31:23.316Z,0
2018-12-05T04:32:33.117Z,0
2018-12-05T04:33:43.191Z,0
2018-12-05T04:34:53.488Z,0
2018-12-05T04:36:05.010Z,0
2018-12-05T04:37:15.151Z,0
2018-12-05T04:38:25.523Z,0
2018-12-05T04:39:35.583Z,0
2018-12-05T04:40:45.637Z,0
2018-12-05T04:41:55.477Z,0
2018-12-05T04:43:06.647Z,0
2018-12-05T04:44:16.785Z,0
2018-12-05T04:45:26.608Z,0
2018-12-05T04:46:36.417Z,0
2018-12-05T04:47:46.468Z,0
2018-12-05T04:48:56.563Z,0
2018-12-05T04:50:08.540Z,0
2018-12-05T04:51:18.633Z,0
2018-12-05T04:52:28.707Z,0
2018-12-05T04:53:38.525Z,0
2018-12-05T04:54:48.613Z,0
2018-12-05T04:55:58.696Z,0
2018-12-05T04:57:09.662Z,0
2018-12-05T04:58:19.569Z,0
2018-12-05T04:59:29.653Z,0
2018-12-05T05:00:39.509Z,0
2018-12-05T05:01:49.592Z,0
2018-12-05T05:02:59.744Z,0
2018-12-05T05:04:09.810Z,0
2018-12-05T05:05:19.614Z,0
2018-12-05T05:06:29.695Z,0
2018-12-05T05:07:39.872Z,0
2018-12-05T05:08:49.987Z,0
2018-12-05T05:10:00.055Z,0
2018-12-05T05:11:10.115Z,0
2018-12-05T05:12:20.182Z,0
2018-12-05T05:13:30.241Z,0
2018-12-05T05:14:40.508Z,0
2018-12-05T05:15:51.029Z,0
2018-12-05T05:17:01.090Z,0
2018-12-05T05:18:11.168Z,0
2018-12-05T05:19:21.239Z,0
2018-12-05T05:20:31.059Z,0
2018-12-05T05:21:41.116Z,0
2018-12-05T05:22:51.279Z,0
2018-12-05T05:24:01.434Z,0
2018-12-05T05:25:11.509Z,0
2018-12-05T05:26:21.593Z,0
2018-12-05T05:27:31.656Z,0
2018-12-05T05:28:41.749Z,0
2018-12-05T05:29:51.824Z,0
2018-12-05T05:31:02.443Z,0
2018-12-05T05:32:12.533Z,0
2018-12-05T05:33:22.605Z,0
2018-12-05T05:34:32.718Z,0
2018-12-05T05:35:42.790Z,0
2018-12-05T05:36:52.858Z,0
2018-12-05T05:38:02.922Z,0
2018-12-05T05:39:13.278Z,0
2018-12-05T05:40:23.081Z,0
2018-12-05T05:41:33.228Z,0
2018-12-05T05:42:43.263Z,0
2018-12-05T05:43:53.341Z,0
2018-12-05T05:45:02.950Z,0
2018-12-05T05:46:13.117Z,0
2018-12-05T05:47:23.165Z,0
2018-12-05T05:48:33.228Z,0
2018-12-05T05:49:43.302Z,0
2018-12-05T05:50:53.176Z,0
2018-12-05T05:52:03.262Z,0
2018-12-05T05:53:13.364Z,0
2018-12-05T05:54:23.429Z,0
2018-12-05T05:55:33.233Z,4
2018-12-05T05:56:43.385Z,0
2018-12-05T05:57:53.456Z,0
2018-12-05T05:59:05.824Z,4
2018-12-05T06:00:16.115Z,4
2018-12-05T06:01:26.170Z,4
2018-12-05T06:02:36.059Z,4
2018-12-05T06:03:45.887Z,8
2018-12-05T06:04:55.953Z,8
2018-12-05T06:06:05.930Z,8
2018-12-05T06:07:15.739Z,8
2018-12-05T06:08:25.550Z,12
2018-12-05T06:09:35.633Z,12
2018-12-05T06:10:45.686Z,16
2018-12-05T06:11:55.550Z,20
2018-12-05T06:13:07.805Z,20
2018-12-05T06:14:17.866Z,28
2018-12-05T06:15:27.920Z,28
2018-12-05T06:16:38.061Z,32
2018-12-05T06:17:48.967Z,40
2018-12-05T06:18:59.027Z,44
2018-12-05T06:20:10.824Z,48
2018-12-05T06:21:20.875Z,56
2018-12-05T06:22:31.005Z,64
2018-12-05T06:23:41.070Z,68
2018-12-05T06:24:51.131Z,76
2018-12-05T06:26:02.726Z,92
2018-12-05T06:27:12.865Z,96
2018-12-05T06:28:22.711Z,108
2018-12-05T06:29:32.784Z,120
2018-12-05T06:30:42.850Z,136
2018-12-05T06:31:52.922Z,148
2018-12-05T06:33:03.185Z,164
2018-12-05T06:34:13.246Z,176
2018-12-05T06:35:23.071Z,196
2018-12-05T06:36:33.146Z,212
2018-12-05T06:37:43.286Z,228
2018-12-05T06:38:53.356Z,248
2018-12-05T06:40:03.217Z,272
2018-12-05T06:41:13.270Z,292
2018-12-05T06:42:23.593Z,312
2018-12-05T06:43:33.672Z,340
2018-12-05T06:44:43.760Z,360
2018-12-05T06:45:53.820Z,388
2018-12-05T06:47:05.130Z,420
2018-12-05T06:48:15.191Z,464
2018-12-05T06:49:25.269Z,504
2018-12-05T06:50:35.630Z,536
2018-12-05T06:51:45.441Z,568
2018-12-05T06:52:55.544Z,600
2018-12-05T06:54:06.351Z,636
2018-12-05T06:55:16.417Z,684
2018-12-05T06:56:26.454Z,720
2018-12-05T06:57:36.512Z,756
2018-12-05T06:58:46.731Z,796
2018-12-05T06:59:56.537Z,824
2018-12-05T07:01:06.586Z,864
2018-12-05T07:02:16.663Z,900
2018-12-05T07:03:26.785Z,920
2018-12-05T07:04:36.840Z,964
2018-12-05T07:05:46.895Z,996
2018-12-05T07:06:56.962Z,1024
2018-12-05T07:08:07.749Z,1064
2018-12-05T07:09:17.578Z,1096
2018-12-05T07:10:27.636Z,1096
2018-12-05T07:11:37.945Z,1140
2018-12-05T07:12:47.767Z,1176
2018-12-05T07:13:57.853Z,1044
2018-12-05T07:15:09.371Z,1196
2018-12-05T07:16:19.551Z,1196
2018-12-05T07:17:29.633Z,1232
2018-12-05T07:18:41.328Z,1420
2018-12-05T07:19:51.604Z,1464
2018-12-05T07:21:01.827Z,1496
2018-12-05T07:22:11.655Z,1536
2018-12-05T07:23:21.931Z,1568
2018-12-05T07:24:32.013Z,1616
2018-12-05T07:25:42.081Z,1596
2018-12-05T07:26:52.274Z,1696
2018-12-05T07:28:02.339Z,1732
2018-12-05T07:29:12.161Z,1776
2018-12-05T07:30:29.278Z,1816
2018-12-05T07:31:39.595Z,1840
2018-12-05T07:33:04.357Z,1884
2018-12-05T07:34:14.454Z,1908
2018-12-05T07:35:23.996Z,1936
2018-12-05T07:36:35.311Z,1960
2018-12-05T07:37:44.873Z,1988
2018-12-05T07:38:54.954Z,2000
2018-12-05T07:40:05.163Z,2008
2018-12-05T07:41:15.233Z,1896
2018-12-05T07:42:25.148Z,2020
2018-12-05T07:43:35.218Z,2108
2018-12-05T07:44:45.370Z,2120
2018-12-05T07:45:55.445Z,2152
2018-12-05T07:47:05.257Z,2136
2018-12-05T07:48:15.349Z,2076
2018-12-05T07:49:25.636Z,1860
2018-12-05T07:50:35.700Z,1676
2018-12-05T07:51:45.842Z,2008
2018-12-05T07:52:55.923Z,2012
2018-12-05T07:54:05.746Z,2080
2018-12-05T07:55:15.815Z,2308
2018-12-05T07:56:25.935Z,2352
2018-12-05T07:57:37.855Z,2348
2018-12-05T07:58:48.062Z,2368
2018-12-05T07:59:58.160Z,2404
2018-12-05T08:01:11.294Z,2400
2018-12-05T08:02:21.151Z,2396
2018-12-05T08:03:31.278Z,2508
2018-12-05T08:04:41.358Z,2568
2018-12-05T08:05:51.430Z,2584
2018-12-05T08:07:03.157Z,2640
2018-12-05T08:08:13.306Z,2692
2018-12-05T08:09:23.443Z,2792
2018-12-05T08:10:33.494Z,3464
2018-12-05T08:11:43.570Z,3284
2018-12-05T08:12:53.383Z,2772
2018-12-05T08:14:06.590Z,2800
2018-12-05T08:15:16.752Z,2832
2018-12-05T08:16:26.586Z,2868
2018-12-05T08:17:36.393Z,2904
2018-12-05T08:18:46.231Z,2932
2018-12-05T08:19:56.324Z,2956
2018-12-05T08:21:06.396Z,2980
2018-12-05T08:22:16.535Z,3012
2018-12-05T08:23:26.597Z,3036
2018-12-05T08:24:36.454Z,3060
2018-12-05T08:25:48.179Z,3088
2018-12-05T08:26:58.254Z,3112
2018-12-05T08:28:08.329Z,3136
2018-12-05T08:29:18.383Z,3160
2018-12-05T08:30:28.477Z,3180
2018-12-05T08:31:38.541Z,3212
2018-12-05T08:32:48.612Z,3220
2018-12-05T08:33:58.706Z,3252
2018-12-05T08:35:08.764Z,3276
2018-12-05T08:36:18.571Z,3292
2018-12-05T08:37:28.712Z,3312
2018-12-05T08:38:38.859Z,3328
2018-12-05T08:39:48.929Z,3348
2018-12-05T08:40:58.736Z,3372
2018-12-05T08:42:09.840Z,3392
2018-12-05T08:43:19.961Z,3416
2018-12-05T08:44:30.040Z,3440
2018-12-05T08:45:40.095Z,3468
2018-12-05T08:46:50.169Z,3480
2018-12-05T08:48:02.779Z,3504
2018-12-05T08:49:13.081Z,3496
2018-12-05T08:50:22.893Z,3512
2018-12-05T08:51:32.725Z,3528
2018-12-05T08:52:42.869Z,3544
2018-12-05T08:53:52.942Z,3556
2018-12-05T08:55:03.037Z,3584
2018-12-05T08:56:13.149Z,3608
2018-12-05T08:57:23.273Z,3636
2018-12-05T08:58:33.563Z,3660
2018-12-05T08:59:43.360Z,3688
2018-12-05T09:00:53.428Z,3716
2018-12-05T09:02:03.507Z,3728
2018-12-05T09:03:13.563Z,3752
2018-12-05T09:04:23.630Z,3776
2018-12-05T09:05:33.459Z,3796
2018-12-05T09:06:43.279Z,3828
2018-12-05T09:07:52.868Z,3852
2018-12-05T09:09:03.042Z,3872
2018-12-05T09:10:13.172Z,3912
2018-12-05T09:11:23.224Z,3944
2018-12-05T09:12:33.295Z,3972
2018-12-05T09:13:43.124Z,3968
2018-12-05T09:14:53.206Z,3556
2018-12-05T09:16:03.327Z,3072
2018-12-05T09:17:13.590Z,4116
2018-12-05T09:18:28.493Z,3928
2018-12-05T09:19:42.241Z,4100
2018-12-05T09:20:55.466Z,4112
2018-12-05T09:22:12.119Z,4152
2018-12-05T09:23:29.525Z,4152
2018-12-05T09:24:46.484Z,4184
2018-12-05T09:26:04.036Z,4212
2018-12-05T09:27:20.627Z,4256
2018-12-05T09:28:37.204Z,4172
2018-12-05T09:29:54.400Z,4200
2018-12-05T09:31:07.988Z,4316
2018-12-05T09:32:18.097Z,4344
2018-12-05T09:33:28.153Z,4352
2018-12-05T09:34:38.266Z,4364
2018-12-05T09:35:48.329Z,4388
2018-12-05T09:36:58.444Z,4396
2018-12-05T09:38:10.636Z,4388
2018-12-05T09:39:20.431Z,4420
2018-12-05T09:40:30.495Z,4432
2018-12-05T09:41:40.556Z,4436
2018-12-05T09:42:50.624Z,4452
2018-12-05T09:44:00.906Z,4460
2018-12-05T09:45:10.716Z,4480
2018-12-05T09:46:20.765Z,4476
2018-12-05T09:47:30.821Z,4476
2018-12-05T09:48:40.881Z,4500
2018-12-05T09:49:50.935Z,4504
2018-12-05T09:51:01.001Z,4496
2018-12-05T09:52:11.066Z,4504
2018-12-05T09:53:20.868Z,4528
2018-12-05T09:54:30.421Z,4524
2018-12-05T09:55:40.247Z,4536
2018-12-05T09:56:50.055Z,4544
2018-12-05T09:58:00.536Z,4564
2018-12-05T09:59:10.614Z,4588
2018-12-05T10:00:21.244Z,4596
2018-12-05T10:01:31.327Z,4612
2018-12-05T10:02:41.492Z,4612
2018-12-05T10:03:51.574Z,4612
2018-12-05T10:05:01.626Z,4616
2018-12-05T10:06:11.455Z,4628
2018-12-05T10:07:21.525Z,4644
2018-12-05T10:08:31.330Z,4664
2018-12-05T10:09:43.257Z,4672
2018-12-05T10:10:53.471Z,4688
2018-12-05T10:12:03.554Z,4692
2018-12-05T10:13:13.656Z,4696
2018-12-05T10:14:23.750Z,4712
2018-12-05T10:15:33.828Z,4724
2018-12-05T10:16:43.919Z,4712
2018-12-05T10:17:54.074Z,4700
2018-12-05T10:19:04.702Z,4696
2018-12-05T10:20:14.786Z,4696
2018-12-05T10:21:24.845Z,4708
2018-12-05T10:22:34.650Z,4708
2018-12-05T10:23:44.748Z,4712
2018-12-05T10:24:54.813Z,4716
2018-12-05T10:26:04.623Z,4732
2018-12-05T10:27:14.693Z,4728
2018-12-05T10:28:24.871Z,4732
2018-12-05T10:29:34.935Z,4732
2018-12-05T10:30:44.996Z,4744
2018-12-05T10:31:55.065Z,4772
2018-12-05T10:33:04.917Z,4780
2018-12-05T10:34:14.487Z,4796
2018-12-05T10:35:24.689Z,4796
2018-12-05T10:36:34.485Z,4808
2018-12-05T10:37:44.556Z,4824
2018-12-05T10:38:54.626Z,4860
2018-12-05T10:40:04.705Z,4880
2018-12-05T10:41:14.927Z,4872
2018-12-05T10:42:24.735Z,4908
2018-12-05T10:43:34.794Z,4928
2018-12-05T10:44:44.848Z,4944
2018-12-05T10:45:54.957Z,4968
2018-12-05T10:47:05.176Z,4980
2018-12-05T10:48:15.262Z,5028
2018-12-05T10:49:25.372Z,5016
2018-12-05T10:50:35.438Z,5040
2018-12-05T10:51:45.526Z,5056
2018-12-05T10:52:55.586Z,5096
2018-12-05T10:54:05.380Z,5124
2018-12-05T10:55:15.436Z,5140
2018-12-05T10:56:25.485Z,5128
2018-12-05T10:57:35.543Z,5092
2018-12-05T10:58:45.659Z,5112
2018-12-05T10:59:55.495Z,5144
2018-12-05T11:01:05.572Z,5120
2018-12-05T11:02:15.640Z,5132
2018-12-05T11:03:26.423Z,5160
2018-12-05T11:04:36.242Z,5164
2018-12-05T11:05:46.313Z,5148
2018-12-05T11:06:56.360Z,5136
2018-12-05T11:08:06.438Z,5140
2018-12-05T11:09:16.499Z,5172
2018-12-05T11:10:26.627Z,5200
2018-12-05T11:11:36.712Z,5204
2018-12-05T11:12:46.518Z,5224
2018-12-05T11:13:56.346Z,5224
2018-12-05T11:15:06.426Z,5244
2018-12-05T11:16:16.528Z,5232
2018-12-05T11:17:26.347Z,5228
2018-12-05T11:18:37.525Z,5232
2018-12-05T11:19:47.583Z,5204
2018-12-05T11:20:57.637Z,5212
2018-12-05T11:22:07.840Z,5212
2018-12-05T11:23:17.916Z,5208
2018-12-05T11:24:27.737Z,5196
2018-12-05T11:25:37.842Z,5200
2018-12-05T11:26:47.378Z,5180
2018-12-05T11:27:57.448Z,5168
2018-12-05T11:29:10.701Z,5152
2018-12-05T11:30:20.777Z,5164
2018-12-05T11:31:30.837Z,5160
2018-12-05T11:32:40.913Z,5148
2018-12-05T11:33:50.976Z,5144
2018-12-05T11:35:01.373Z,5152
2018-12-05T11:36:11.177Z,5120
2018-12-05T11:37:21.301Z,5120
2018-12-05T11:38:31.119Z,5100
2018-12-05T11:39:40.938Z,5076
2018-12-05T11:40:50.999Z,5072
2018-12-05T11:42:01.058Z,5064
2018-12-05T11:43:10.883Z,5040
2018-12-05T11:44:21.027Z,5048
2018-12-05T11:45:30.980Z,5076
2018-12-05T11:46:40.809Z,5072
2018-12-05T11:47:50.885Z,5036
2018-12-05T11:49:03.242Z,5012
2018-12-05T11:50:13.340Z,5000
2018-12-05T11:51:23.458Z,4992
2018-12-05T11:52:33.561Z,4988
2018-12-05T11:53:43.626Z,4992
2018-12-05T11:54:53.420Z,4972
2018-12-05T11:56:03.815Z,4968
2018-12-05T11:57:13.871Z,4968
2018-12-05T11:58:23.663Z,4956
2018-12-05T11:59:33.719Z,4964
2018-12-05T12:00:43.272Z,4956
2018-12-05T12:01:53.106Z,4980
2018-12-05T12:03:03.555Z,4992
2018-12-05T12:04:13.643Z,4996
2018-12-05T12:05:24.774Z,4984
2018-12-05T12:06:34.707Z,4988
2018-12-05T12:07:44.790Z,4988
2018-12-05T12:08:54.940Z,5008
2018-12-05T12:10:04.818Z,6404
2018-12-05T12:11:14.884Z,9296
2018-12-05T12:12:24.973Z,11480
2018-12-05T12:13:35.036Z,13408
2018-12-05T12:14:45.171Z,13984
2018-12-05T12:15:55.254Z,14112
2018-12-05T12:17:05.987Z,13884
2018-12-05T12:18:16.056Z,12852
2018-12-05T12:19:25.874Z,11064
2018-12-05T12:20:35.974Z,8144
2018-12-05T12:21:46.106Z,5176
2018-12-05T12:22:56.228Z,4912
2018-12-05T12:24:07.213Z,4876
2018-12-05T12:25:17.304Z,4884
2018-12-05T12:26:33.077Z,7128
2018-12-05T12:27:43.487Z,12344
2018-12-05T12:28:53.575Z,13108
2018-12-05T12:30:03.667Z,12540
2018-12-05T12:31:13.756Z,12052
2018-12-05T12:32:23.548Z,13104
2018-12-05T12:33:33.639Z,13368
2018-12-05T12:34:43.702Z,12004
2018-12-05T12:35:53.555Z,10024
2018-12-05T12:37:04.785Z,5536
2018-12-05T12:38:14.389Z,4600
2018-12-05T12:39:24.455Z,4568
2018-12-05T12:40:34.554Z,4736
2018-12-05T12:41:44.899Z,4680
2018-12-05T12:42:55.036Z,4532
2018-12-05T12:44:04.916Z,4496
2018-12-05T12:45:15.016Z,4480
2018-12-05T12:46:25.114Z,4416
2018-12-05T12:47:35.205Z,4388
2018-12-05T12:48:46.794Z,4340
2018-12-05T12:49:56.885Z,4264
2018-12-05T12:51:06.999Z,4200
2018-12-05T12:52:17.322Z,4140
2018-12-05T12:53:27.644Z,4116
2018-12-05T12:54:37.762Z,4072
2018-12-05T12:55:47.616Z,4020
2018-12-05T12:56:57.695Z,3968
2018-12-05T12:58:10.579Z,3940
2018-12-05T12:59:20.871Z,3908
2018-12-05T13:00:30.948Z,3856
2018-12-05T13:01:41.136Z,3824
2018-12-05T13:02:51.448Z,3764
2018-12-05T13:04:01.527Z,3760
2018-12-05T13:05:11.612Z,3704
2018-12-05T13:06:21.562Z,3648
2018-12-05T13:07:31.932Z,3588
2018-12-05T13:08:42.015Z,3544
2018-12-05T13:09:52.078Z,3496
2018-12-05T13:11:03.155Z,3452
2018-12-05T13:12:13.271Z,3400
2018-12-05T13:13:23.351Z,3376
2018-12-05T13:14:33.516Z,3352
2018-12-05T13:15:43.352Z,3332
2018-12-05T13:16:53.455Z,3312
2018-12-05T13:18:04.374Z,3276
2018-12-05T13:19:14.297Z,3252
2018-12-05T13:20:24.375Z,3232
2018-12-05T13:21:34.515Z,3220
2018-12-05T13:22:44.625Z,3180
2018-12-05T13:23:54.452Z,3148
2018-12-05T13:25:05.375Z,3116
2018-12-05T13:26:15.453Z,3028
2018-12-05T13:27:25.596Z,3008
2018-12-05T13:28:35.394Z,2984
2018-12-05T13:29:45.209Z,2992
2018-12-05T13:30:55.345Z,2964
2018-12-05T13:32:05.423Z,2932
2018-12-05T13:33:15.485Z,2860
2018-12-05T13:34:25.558Z,2836
2018-12-05T13:35:35.654Z,2788
2018-12-05T13:36:45.776Z,2768
2018-12-05T13:37:56.178Z,2736
2018-12-05T13:39:06.251Z,2684
2018-12-05T13:40:16.085Z,2664
2018-12-05T13:41:26.176Z,2616
2018-12-05T13:42:36.373Z,2560
2018-12-05T13:43:46.442Z,2504
2018-12-05T13:44:56.531Z,2488
2018-12-05T13:46:07.997Z,2456
2018-12-05T13:47:18.085Z,2432
2018-12-05T13:48:28.180Z,2392
2018-12-05T13:49:38.357Z,2328
2018-12-05T13:50:48.416Z,2280
2018-12-05T13:51:58.235Z,2264
2018-12-05T13:53:08.480Z,2220
2018-12-05T13:54:18.813Z,2168
2018-12-05T13:55:28.633Z,2124
2018-12-05T13:56:38.448Z,2096
2018-12-05T13:57:48.609Z,2048
2018-12-05T13:58:58.689Z,1996
2018-12-05T14:00:09.621Z,1944
2018-12-05T14:01:19.933Z,1888
2018-12-05T14:02:30.286Z,1836
2018-12-05T14:03:40.380Z,1780
2018-12-05T14:04:50.670Z,1728
2018-12-05T14:06:00.782Z,1680
2018-12-05T14:07:10.957Z,1628
2018-12-05T14:08:21.056Z,1572
2018-12-05T14:09:30.890Z,1504
2018-12-05T14:10:40.986Z,1436
2018-12-05T14:11:51.125Z,1356
2018-12-05T14:13:01.188Z,1288
2018-12-05T14:14:11.307Z,1216
2018-12-05T14:15:21.428Z,1148
2018-12-05T14:16:31.658Z,1064
2018-12-05T14:17:41.530Z,1016
2018-12-05T14:18:51.339Z,952
2018-12-05T14:20:01.415Z,888
2018-12-05T14:21:11.263Z,860
2018-12-05T14:22:21.099Z,816
2018-12-05T14:23:31.760Z,788
2018-12-05T14:24:41.856Z,756
2018-12-05T14:25:51.671Z,728
2018-12-05T14:27:01.740Z,700
2018-12-05T14:28:11.820Z,672
2018-12-05T14:29:21.976Z,648
2018-12-05T14:30:32.047Z,620
2018-12-05T14:31:42.376Z,596
2018-12-05T14:32:52.923Z,568
2018-12-05T14:34:03.362Z,548
2018-12-05T14:35:13.447Z,532
2018-12-05T14:36:23.526Z,508
2018-12-05T14:37:33.616Z,488
2018-12-05T14:38:43.794Z,464
2018-12-05T14:39:53.906Z,444
2018-12-05T14:41:03.992Z,424
2018-12-05T14:42:13.876Z,396
2018-12-05T14:43:23.676Z,380
2018-12-05T14:44:33.479Z,364
2018-12-05T14:45:43.579Z,340
2018-12-05T14:46:53.453Z,324
2018-12-05T14:48:05.381Z,300
2018-12-05T14:49:15.263Z,284
2018-12-05T14:50:25.497Z,260
2018-12-05T14:51:35.403Z,240
2018-12-05T14:52:45.471Z,224
2018-12-05T14:53:55.556Z,204
2018-12-05T14:55:05.649Z,188
2018-12-05T14:56:15.963Z,172
2018-12-05T14:57:25.544Z,156
2018-12-05T14:58:35.883Z,140
2018-12-05T14:59:45.963Z,132
2018-12-05T15:00:56.337Z,116
2018-12-05T15:02:06.499Z,104
2018-12-05T15:03:16.595Z,92
2018-12-05T15:04:26.451Z,84
2018-12-05T15:05:36.577Z,72
2018-12-05T15:06:54.108Z,64
2018-12-05T15:08:18.819Z,56
2018-12-05T15:09:29.014Z,48
2018-12-05T15:10:39.120Z,44
2018-12-05T15:11:49.193Z,32
2018-12-05T15:12:59.462Z,28
2018-12-05T15:14:10.705Z,24
2018-12-05T15:15:20.882Z,20
2018-12-05T15:16:30.985Z,16
2018-12-05T15:17:41.213Z,12
2018-12-05T15:18:51.304Z,12
2018-12-05T15:20:01.395Z,8
2018-12-05T15:21:11.581Z,8
2018-12-05T15:22:21.774Z,4
2018-12-05T15:23:31.846Z,4
2018-12-05T15:24:41.930Z,4
2018-12-05T15:25:52.003Z,4
2018-12-05T15:27:03.945Z,4
2018-12-05T15:28:13.833Z,0
2018-12-05T15:29:25.726Z,4
2018-12-05T15:30:36.477Z,4
2018-12-05T15:31:46.574Z,0
2018-12-05T15:32:56.933Z,0
2018-12-05T15:34:07.027Z,0
2018-12-05T15:35:17.098Z,0
2018-12-05T15:36:27.274Z,0
2018-12-05T15:37:37.083Z,0
2018-12-05T15:38:47.215Z,0
2018-12-05T15:39:57.293Z,0
2018-12-05T15:41:07.299Z,0
2018-12-05T15:42:17.247Z,0
2018-12-05T15:43:27.095Z,0
2018-12-05T15:44:37.263Z,0
2018-12-05T15:45:47.076Z,0
2018-12-05T15:46:57.149Z,0
2018-12-05T15:48:06.954Z,0
2018-12-05T15:49:17.057Z,0
2018-12-05T15:50:26.924Z,0
2018-12-05T15:51:36.800Z,0
2018-12-05T15:52:46.622Z,0
2018-12-05T15:53:56.447Z,0
2018-12-05T15:55:07.686Z,0
2018-12-05T15:56:17.812Z,0
2018-12-05T15:57:28.316Z,0
2018-12-05T15:58:38.689Z,0
2018-12-05T15:59:49.041Z,0
2018-12-05T16:00:59.133Z,0
2018-12-05T16:02:09.317Z,0
2018-12-05T16:03:19.399Z,0
2018-12-05T16:04:29.516Z,0
2018-12-05T16:05:40.487Z,0
2018-12-05T16:06:50.573Z,0
2018-12-05T16:08:00.763Z,0
2018-12-05T16:09:10.826Z,0
2018-12-05T16:10:20.908Z,0
2018-12-05T16:11:30.712Z,0
2018-12-05T16:12:40.764Z,0
2018-12-05T16:13:50.894Z,0
2018-12-05T16:15:03.500Z,0
2018-12-05T16:16:13.573Z,0
2018-12-05T16:17:23.642Z,0
2018-12-05T16:18:33.719Z,0
2018-12-05T16:19:43.549Z,0
2018-12-05T16:20:53.596Z,0
2018-12-05T16:22:03.728Z,0
2018-12-05T16:23:13.824Z,0
2018-12-05T16:24:23.918Z,0
2018-12-05T16:25:33.989Z,0
2018-12-05T16:26:44.045Z,0
2018-12-05T16:27:54.139Z,0
2018-12-05T16:29:05.039Z,0
2018-12-05T16:30:14.675Z,0
2018-12-05T16:31:24.796Z,0
2018-12-05T16:32:34.864Z,0
2018-12-05T16:33:44.746Z,0
2018-12-05T16:34:54.825Z,0
2018-12-05T16:36:04.923Z,0
2018-12-05T16:37:18.797Z,0
2018-12-05T16:38:28.886Z,0
2018-12-05T16:39:38.708Z,0
2018-12-05T16:40:48.530Z,0
2018-12-05T16:41:58.845Z,0
2018-12-05T16:43:08.904Z,0
2018-12-05T16:44:20.325Z,0
2018-12-05T16:45:30.629Z,0
2018-12-05T16:46:40.674Z,0
2018-12-05T16:47:51.412Z,0
2018-12-05T16:49:01.514Z,0
2018-12-05T16:50:11.580Z,0
2018-12-05T16:51:21.389Z,0
2018-12-05T16:52:31.494Z,0
2018-12-05T16:53:41.567Z,0
2018-12-05T16:54:51.381Z,0